sensor_id;sensor_type;location;lat;lon;timestamp;P1;durP1;ratioP1;P2;durP2;ratioP2
54945;SDS011;40846;44.788;20.486;2022-12-18T00:01:42;50.42;;;24.33;;
54945;SDS011;40846;44.788;20.486;2022-12-18T00:04:12;43.38;;;20.83;;
54945;SDS011;40846;44.788;20.486;2022-12-18T00:06:41;40.22;;;20.48;;
54945;SDS011;40846;44.788;20.486;2022-12-18T00:09:07;45.92;;;20.27;;
54945;SDS011;40846;44.788;20.486;2022-12-18T00:11:33;41.38;;;20.70;;
54945;SDS011;40846;44.788;20.486;2022-12-18T00:13:59;54.08;;;25.10;;
54945;SDS011;40846;44.788;20.486;2022-12-18T00:16:26;40.85;;;19.77;;
54945;SDS011;40846;44.788;20.486;2022-12-18T00:18:53;40.13;;;19.38;;
54945;SDS011;40846;44.788;20.486;2022-12-18T00:21:20;46.30;;;19.52;;
54945;SDS011;40846;44.788;20.486;2022-12-18T00:23:47;43.13;;;20.98;;
54945;SDS011;40846;44.788;20.486;2022-12-18T00:26:14;49.33;;;23.70;;
54945;SDS011;40846;44.788;20.486;2022-12-18T00:28:40;51.25;;;22.05;;
54945;SDS011;40846;44.788;20.486;2022-12-18T00:31:08;42.25;;;20.75;;
54945;SDS011;40846;44.788;20.486;2022-12-18T00:33:34;43.65;;;21.50;;
54945;SDS011;40846;44.788;20.486;2022-12-18T00:36:01;47.78;;;23.02;;
54945;SDS011;40846;44.788;20.486;2022-12-18T00:38:27;45.25;;;19.63;;
54945;SDS011;40846;44.788;20.486;2022-12-18T00:40:53;54.10;;;23.67;;
54945;SDS011;40846;44.788;20.486;2022-12-18T00:43:20;44.58;;;21.38;;
54945;SDS011;40846;44.788;20.486;2022-12-18T00:45:46;49.58;;;21.98;;
54945;SDS011;40846;44.788;20.486;2022-12-18T00:48:12;55.67;;;23.73;;
54945;SDS011;40846;44.788;20.486;2022-12-18T00:50:38;63.00;;;26.35;;
54945;SDS011;40846;44.788;20.486;2022-12-18T00:53:04;45.30;;;21.38;;
54945;SDS011;40846;44.788;20.486;2022-12-18T00:55:30;55.15;;;22.38;;
54945;SDS011;40846;44.788;20.486;2022-12-18T00:57:56;49.10;;;21.27;;
54945;SDS011;40846;44.788;20.486;2022-12-18T01:00:22;57.38;;;23.35;;
54945;SDS011;40846;44.788;20.486;2022-12-18T01:02:48;48.25;;;20.35;;
54945;SDS011;40846;44.788;20.486;2022-12-18T01:05:14;49.20;;;20.20;;
54945;SDS011;40846;44.788;20.486;2022-12-18T01:07:40;50.40;;;21.70;;
54945;SDS011;40846;44.788;20.486;2022-12-18T01:10:07;48.00;;;21.10;;
54945;SDS011;40846;44.788;20.486;2022-12-18T01:12:34;91.78;;;28.58;;
54945;SDS011;40846;44.788;20.486;2022-12-18T01:15:00;49.13;;;21.80;;
54945;SDS011;40846;44.788;20.486;2022-12-18T01:17:26;41.65;;;18.67;;
54945;SDS011;40846;44.788;20.486;2022-12-18T01:19:52;69.55;;;25.40;;
54945;SDS011;40846;44.788;20.486;2022-12-18T01:22:17;49.38;;;21.52;;
54945;SDS011;40846;44.788;20.486;2022-12-18T01:24:43;87.43;;;27.88;;
54945;SDS011;40846;44.788;20.486;2022-12-18T01:27:09;58.60;;;23.80;;
54945;SDS011;40846;44.788;20.486;2022-12-18T01:29:35;43.70;;;18.75;;
54945;SDS011;40846;44.788;20.486;2022-12-18T01:32:01;52.83;;;21.95;;
54945;SDS011;40846;44.788;20.486;2022-12-18T01:34:27;53.25;;;20.77;;
54945;SDS011;40846;44.788;20.486;2022-12-18T01:36:53;69.45;;;23.75;;
54945;SDS011;40846;44.788;20.486;2022-12-18T01:39:19;49.70;;;20.17;;
54945;SDS011;40846;44.788;20.486;2022-12-18T01:41:45;68.00;;;23.70;;
54945;SDS011;40846;44.788;20.486;2022-12-18T01:47:18;41.85;;;19.05;;
54945;SDS011;40846;44.788;20.486;2022-12-18T01:49:45;46.55;;;19.63;;
54945;SDS011;40846;44.788;20.486;2022-12-18T01:52:12;62.60;;;22.83;;
54945;SDS011;40846;44.788;20.486;2022-12-18T01:54:39;52.17;;;21.25;;
54945;SDS011;40846;44.788;20.486;2022-12-18T01:57:05;48.78;;;19.60;;
54945;SDS011;40846;44.788;20.486;2022-12-18T01:59:31;43.35;;;19.13;;
54945;SDS011;40846;44.788;20.486;2022-12-18T02:01:58;78.00;;;25.83;;
54945;SDS011;40846;44.788;20.486;2022-12-18T02:04:25;103.18;;;33.30;;
54945;SDS011;40846;44.788;20.486;2022-12-18T02:06:59;111.97;;;32.95;;
54945;SDS011;40846;44.788;20.486;2022-12-18T02:09:31;54.85;;;20.77;;
54945;SDS011;40846;44.788;20.486;2022-12-18T02:12:02;44.55;;;20.75;;
54945;SDS011;40846;44.788;20.486;2022-12-18T02:17:19;42.00;;;18.77;;
54945;SDS011;40846;44.788;20.486;2022-12-18T02:27:27;60.83;;;21.40;;
54945;SDS011;40846;44.788;20.486;2022-12-18T02:29:53;38.35;;;18.40;;
54945;SDS011;40846;44.788;20.486;2022-12-18T02:32:26;44.28;;;19.80;;
54945;SDS011;40846;44.788;20.486;2022-12-18T02:34:59;44.70;;;19.23;;
54945;SDS011;40846;44.788;20.486;2022-12-18T02:37:27;49.92;;;20.55;;
54945;SDS011;40846;44.788;20.486;2022-12-18T02:39:56;45.95;;;20.08;;
54945;SDS011;40846;44.788;20.486;2022-12-18T02:42:23;57.10;;;23.25;;
54945;SDS011;40846;44.788;20.486;2022-12-18T02:44:50;66.60;;;24.17;;
54945;SDS011;40846;44.788;20.486;2022-12-18T02:47:17;46.00;;;20.38;;
54945;SDS011;40846;44.788;20.486;2022-12-18T03:00:44;71.90;;;26.02;;
54945;SDS011;40846;44.788;20.486;2022-12-18T03:06:06;57.88;;;23.52;;
54945;SDS011;40846;44.788;20.486;2022-12-18T03:08:38;56.40;;;24.08;;
54945;SDS011;40846;44.788;20.486;2022-12-18T03:11:11;50.60;;;22.38;;
54945;SDS011;40846;44.788;20.486;2022-12-18T03:16:22;50.20;;;22.23;;
54945;SDS011;40846;44.788;20.486;2022-12-18T03:21:21;46.00;;;19.38;;
54945;SDS011;40846;44.788;20.486;2022-12-18T03:23:53;47.45;;;19.95;;
54945;SDS011;40846;44.788;20.486;2022-12-18T03:26:23;48.75;;;21.10;;
54945;SDS011;40846;44.788;20.486;2022-12-18T03:28:53;48.83;;;21.10;;
54945;SDS011;40846;44.788;20.486;2022-12-18T03:31:28;65.50;;;24.58;;
54945;SDS011;40846;44.788;20.486;2022-12-18T03:34:01;52.55;;;21.83;;
54945;SDS011;40846;44.788;20.486;2022-12-18T03:36:33;46.78;;;21.73;;
54945;SDS011;40846;44.788;20.486;2022-12-18T03:38:58;45.17;;;21.70;;
54945;SDS011;40846;44.788;20.486;2022-12-18T03:41:32;43.60;;;21.40;;
54945;SDS011;40846;44.788;20.486;2022-12-18T03:52:27;43.80;;;20.13;;
54945;SDS011;40846;44.788;20.486;2022-12-18T03:55:05;41.72;;;19.02;;
54945;SDS011;40846;44.788;20.486;2022-12-18T03:57:33;42.30;;;18.77;;
54945;SDS011;40846;44.788;20.486;2022-12-18T04:00:03;43.13;;;21.83;;
54945;SDS011;40846;44.788;20.486;2022-12-18T04:02:29;43.90;;;19.15;;
54945;SDS011;40846;44.788;20.486;2022-12-18T04:04:59;42.95;;;19.55;;
54945;SDS011;40846;44.788;20.486;2022-12-18T04:07:27;41.30;;;18.58;;
54945;SDS011;40846;44.788;20.486;2022-12-18T04:09:54;38.83;;;18.48;;
54945;SDS011;40846;44.788;20.486;2022-12-18T04:12:25;43.20;;;21.25;;
54945;SDS011;40846;44.788;20.486;2022-12-18T04:14:51;42.08;;;19.77;;
54945;SDS011;40846;44.788;20.486;2022-12-18T04:17:17;43.25;;;19.08;;
54945;SDS011;40846;44.788;20.486;2022-12-18T04:19:43;45.65;;;19.85;;
54945;SDS011;40846;44.788;20.486;2022-12-18T04:22:10;40.95;;;19.40;;
54945;SDS011;40846;44.788;20.486;2022-12-18T04:24:36;44.90;;;20.33;;
54945;SDS011;40846;44.788;20.486;2022-12-18T04:27:02;45.72;;;20.98;;
54945;SDS011;40846;44.788;20.486;2022-12-18T04:29:28;44.75;;;19.58;;
54945;SDS011;40846;44.788;20.486;2022-12-18T04:31:53;44.92;;;19.42;;
54945;SDS011;40846;44.788;20.486;2022-12-18T04:34:19;42.00;;;20.00;;
54945;SDS011;40846;44.788;20.486;2022-12-18T04:36:45;38.58;;;18.52;;
54945;SDS011;40846;44.788;20.486;2022-12-18T04:39:11;38.47;;;18.95;;
54945;SDS011;40846;44.788;20.486;2022-12-18T04:41:37;43.83;;;19.90;;
54945;SDS011;40846;44.788;20.486;2022-12-18T04:44:03;41.05;;;19.35;;
54945;SDS011;40846;44.788;20.486;2022-12-18T04:46:29;40.40;;;19.25;;
54945;SDS011;40846;44.788;20.486;2022-12-18T04:48:55;43.25;;;18.60;;
54945;SDS011;40846;44.788;20.486;2022-12-18T04:51:21;49.15;;;21.33;;
54945;SDS011;40846;44.788;20.486;2022-12-18T04:53:47;45.38;;;20.98;;
54945;SDS011;40846;44.788;20.486;2022-12-18T04:56:14;45.20;;;21.45;;
54945;SDS011;40846;44.788;20.486;2022-12-18T04:58:41;49.28;;;21.70;;
54945;SDS011;40846;44.788;20.486;2022-12-18T05:01:09;43.03;;;20.27;;
54945;SDS011;40846;44.788;20.486;2022-12-18T05:03:38;45.92;;;21.92;;
54945;SDS011;40846;44.788;20.486;2022-12-18T05:06:04;41.47;;;20.02;;
54945;SDS011;40846;44.788;20.486;2022-12-18T05:08:31;48.03;;;21.55;;
54945;SDS011;40846;44.788;20.486;2022-12-18T05:11:06;46.25;;;20.55;;
54945;SDS011;40846;44.788;20.486;2022-12-18T05:13:34;45.58;;;21.85;;
54945;SDS011;40846;44.788;20.486;2022-12-18T05:16:00;47.80;;;20.27;;
54945;SDS011;40846;44.788;20.486;2022-12-18T05:18:27;46.00;;;20.65;;
54945;SDS011;40846;44.788;20.486;2022-12-18T05:20:53;46.80;;;21.80;;
54945;SDS011;40846;44.788;20.486;2022-12-18T05:23:19;43.22;;;19.98;;
54945;SDS011;40846;44.788;20.486;2022-12-18T05:25:47;48.40;;;21.25;;
54945;SDS011;40846;44.788;20.486;2022-12-18T05:28:24;48.13;;;20.02;;
54945;SDS011;40846;44.788;20.486;2022-12-18T05:30:51;46.28;;;19.73;;
54945;SDS011;40846;44.788;20.486;2022-12-18T05:33:18;47.35;;;21.70;;
54945;SDS011;40846;44.788;20.486;2022-12-18T05:35:50;48.10;;;21.42;;
54945;SDS011;40846;44.788;20.486;2022-12-18T05:38:16;47.92;;;20.90;;
54945;SDS011;40846;44.788;20.486;2022-12-18T05:40:43;50.90;;;22.08;;
54945;SDS011;40846;44.788;20.486;2022-12-18T05:43:09;44.35;;;21.60;;
54945;SDS011;40846;44.788;20.486;2022-12-18T05:45:38;47.95;;;19.98;;
54945;SDS011;40846;44.788;20.486;2022-12-18T05:48:05;51.35;;;21.92;;
54945;SDS011;40846;44.788;20.486;2022-12-18T05:50:33;46.58;;;20.65;;
54945;SDS011;40846;44.788;20.486;2022-12-18T05:53:00;53.85;;;23.10;;
54945;SDS011;40846;44.788;20.486;2022-12-18T05:55:26;54.92;;;23.27;;
54945;SDS011;40846;44.788;20.486;2022-12-18T05:57:51;46.60;;;21.30;;
54945;SDS011;40846;44.788;20.486;2022-12-18T06:00:17;52.83;;;22.20;;
54945;SDS011;40846;44.788;20.486;2022-12-18T06:02:46;43.15;;;21.85;;
54945;SDS011;40846;44.788;20.486;2022-12-18T06:05:12;49.50;;;22.45;;
54945;SDS011;40846;44.788;20.486;2022-12-18T06:07:38;52.13;;;22.70;;
54945;SDS011;40846;44.788;20.486;2022-12-18T06:10:03;48.13;;;22.15;;
54945;SDS011;40846;44.788;20.486;2022-12-18T06:12:30;47.60;;;21.73;;
54945;SDS011;40846;44.788;20.486;2022-12-18T06:14:56;49.55;;;21.70;;
54945;SDS011;40846;44.788;20.486;2022-12-18T06:17:21;49.88;;;21.08;;
54945;SDS011;40846;44.788;20.486;2022-12-18T06:19:47;57.10;;;23.02;;
54945;SDS011;40846;44.788;20.486;2022-12-18T06:22:13;49.85;;;22.92;;
54945;SDS011;40846;44.788;20.486;2022-12-18T06:24:38;47.50;;;22.58;;
54945;SDS011;40846;44.788;20.486;2022-12-18T06:27:04;53.45;;;22.83;;
54945;SDS011;40846;44.788;20.486;2022-12-18T06:29:30;55.47;;;22.95;;
54945;SDS011;40846;44.788;20.486;2022-12-18T06:31:55;50.88;;;22.08;;
54945;SDS011;40846;44.788;20.486;2022-12-18T06:34:21;51.03;;;22.63;;
54945;SDS011;40846;44.788;20.486;2022-12-18T06:36:46;55.65;;;23.25;;
54945;SDS011;40846;44.788;20.486;2022-12-18T06:39:12;52.97;;;22.45;;
54945;SDS011;40846;44.788;20.486;2022-12-18T06:41:38;53.10;;;24.15;;
54945;SDS011;40846;44.788;20.486;2022-12-18T06:44:03;52.28;;;23.05;;
54945;SDS011;40846;44.788;20.486;2022-12-18T06:46:29;47.95;;;22.00;;
54945;SDS011;40846;44.788;20.486;2022-12-18T06:48:55;51.22;;;23.02;;
54945;SDS011;40846;44.788;20.486;2022-12-18T06:51:21;51.72;;;23.25;;
54945;SDS011;40846;44.788;20.486;2022-12-18T06:53:48;48.60;;;22.25;;
54945;SDS011;40846;44.788;20.486;2022-12-18T06:56:14;52.72;;;23.08;;
54945;SDS011;40846;44.788;20.486;2022-12-18T06:58:40;50.83;;;22.52;;
54945;SDS011;40846;44.788;20.486;2022-12-18T07:01:08;72.00;;;26.75;;
54945;SDS011;40846;44.788;20.486;2022-12-18T07:03:36;91.25;;;32.72;;
54945;SDS011;40846;44.788;20.486;2022-12-18T07:06:03;135.35;;;44.72;;
54945;SDS011;40846;44.788;20.486;2022-12-18T07:08:30;80.32;;;31.40;;
54945;SDS011;40846;44.788;20.486;2022-12-18T07:10:56;79.45;;;29.48;;
54945;SDS011;40846;44.788;20.486;2022-12-18T07:13:22;57.17;;;23.85;;
54945;SDS011;40846;44.788;20.486;2022-12-18T07:15:48;162.35;;;52.05;;
54945;SDS011;40846;44.788;20.486;2022-12-18T07:18:14;135.82;;;51.38;;
54945;SDS011;40846;44.788;20.486;2022-12-18T07:20:39;94.07;;;38.72;;
54945;SDS011;40846;44.788;20.486;2022-12-18T07:23:05;61.35;;;26.98;;
54945;SDS011;40846;44.788;20.486;2022-12-18T07:25:34;66.78;;;28.77;;
54945;SDS011;40846;44.788;20.486;2022-12-18T07:28:01;53.58;;;24.27;;
54945;SDS011;40846;44.788;20.486;2022-12-18T07:30:27;50.78;;;22.90;;
54945;SDS011;40846;44.788;20.486;2022-12-18T07:32:52;53.70;;;23.77;;
54945;SDS011;40846;44.788;20.486;2022-12-18T07:35:18;56.45;;;24.40;;
54945;SDS011;40846;44.788;20.486;2022-12-18T07:37:44;79.55;;;31.00;;
54945;SDS011;40846;44.788;20.486;2022-12-18T07:40:09;103.05;;;40.10;;
54945;SDS011;40846;44.788;20.486;2022-12-18T07:42:36;68.78;;;29.20;;
54945;SDS011;40846;44.788;20.486;2022-12-18T07:45:02;64.22;;;27.98;;
54945;SDS011;40846;44.788;20.486;2022-12-18T07:47:28;52.03;;;23.05;;
54945;SDS011;40846;44.788;20.486;2022-12-18T07:49:54;50.75;;;23.55;;
54945;SDS011;40846;44.788;20.486;2022-12-18T07:52:20;60.25;;;24.48;;
54945;SDS011;40846;44.788;20.486;2022-12-18T07:54:46;57.13;;;26.27;;
54945;SDS011;40846;44.788;20.486;2022-12-18T07:57:13;53.00;;;23.45;;
54945;SDS011;40846;44.788;20.486;2022-12-18T07:59:39;58.10;;;25.08;;
54945;SDS011;40846;44.788;20.486;2022-12-18T08:02:05;59.95;;;26.10;;
54945;SDS011;40846;44.788;20.486;2022-12-18T08:04:31;56.63;;;28.08;;
54945;SDS011;40846;44.788;20.486;2022-12-18T08:06:59;59.65;;;25.88;;
54945;SDS011;40846;44.788;20.486;2022-12-18T08:09:25;64.00;;;26.58;;
54945;SDS011;40846;44.788;20.486;2022-12-18T08:11:51;61.55;;;26.85;;
54945;SDS011;40846;44.788;20.486;2022-12-18T08:14:16;60.88;;;27.25;;
54945;SDS011;40846;44.788;20.486;2022-12-18T08:16:42;60.35;;;28.23;;
54945;SDS011;40846;44.788;20.486;2022-12-18T08:19:08;62.83;;;29.73;;
54945;SDS011;40846;44.788;20.486;2022-12-18T08:21:35;66.43;;;28.55;;
54945;SDS011;40846;44.788;20.486;2022-12-18T08:24:01;60.63;;;27.77;;
54945;SDS011;40846;44.788;20.486;2022-12-18T08:26:28;60.70;;;28.02;;
54945;SDS011;40846;44.788;20.486;2022-12-18T08:28:55;60.13;;;26.60;;
54945;SDS011;40846;44.788;20.486;2022-12-18T08:31:21;71.82;;;31.38;;
54945;SDS011;40846;44.788;20.486;2022-12-18T08:33:48;67.30;;;29.38;;
54945;SDS011;40846;44.788;20.486;2022-12-18T08:36:15;79.03;;;32.28;;
54945;SDS011;40846;44.788;20.486;2022-12-18T08:38:42;97.55;;;37.60;;
54945;SDS011;40846;44.788;20.486;2022-12-18T08:41:18;102.05;;;37.33;;
54945;SDS011;40846;44.788;20.486;2022-12-18T08:43:44;66.50;;;29.13;;
54945;SDS011;40846;44.788;20.486;2022-12-18T08:46:34;64.65;;;27.77;;
54945;SDS011;40846;44.788;20.486;2022-12-18T08:49:00;59.22;;;26.38;;
54945;SDS011;40846;44.788;20.486;2022-12-18T08:51:26;108.28;;;38.88;;
54945;SDS011;40846;44.788;20.486;2022-12-18T08:53:52;56.65;;;26.23;;
54945;SDS011;40846;44.788;20.486;2022-12-18T08:56:18;51.15;;;25.42;;
54945;SDS011;40846;44.788;20.486;2022-12-18T08:58:44;62.08;;;26.05;;
54945;SDS011;40846;44.788;20.486;2022-12-18T09:01:10;53.63;;;23.25;;
54945;SDS011;40846;44.788;20.486;2022-12-18T09:03:37;50.53;;;23.08;;
54945;SDS011;40846;44.788;20.486;2022-12-18T09:06:03;44.65;;;21.90;;
54945;SDS011;40846;44.788;20.486;2022-12-18T09:08:30;48.80;;;24.20;;
54945;SDS011;40846;44.788;20.486;2022-12-18T09:10:56;56.92;;;27.60;;
54945;SDS011;40846;44.788;20.486;2022-12-18T09:13:22;44.40;;;23.38;;
54945;SDS011;40846;44.788;20.486;2022-12-18T09:15:52;78.93;;;36.92;;
54945;SDS011;40846;44.788;20.486;2022-12-18T09:18:19;45.10;;;23.10;;
54945;SDS011;40846;44.788;20.486;2022-12-18T09:20:46;48.20;;;24.20;;
54945;SDS011;40846;44.788;20.486;2022-12-18T09:23:12;41.80;;;23.00;;
54945;SDS011;40846;44.788;20.486;2022-12-18T09:25:39;57.85;;;25.70;;
54945;SDS011;40846;44.788;20.486;2022-12-18T09:28:06;55.67;;;27.65;;
54945;SDS011;40846;44.788;20.486;2022-12-18T09:30:32;48.53;;;25.30;;
54945;SDS011;40846;44.788;20.486;2022-12-18T09:32:59;47.97;;;23.98;;
54945;SDS011;40846;44.788;20.486;2022-12-18T09:35:25;52.67;;;25.48;;
54945;SDS011;40846;44.788;20.486;2022-12-18T09:37:52;56.60;;;25.65;;
54945;SDS011;40846;44.788;20.486;2022-12-18T09:40:19;47.83;;;24.33;;
54945;SDS011;40846;44.788;20.486;2022-12-18T09:42:52;53.63;;;24.25;;
54945;SDS011;40846;44.788;20.486;2022-12-18T09:45:22;52.55;;;25.30;;
54945;SDS011;40846;44.788;20.486;2022-12-18T09:47:49;53.00;;;26.35;;
54945;SDS011;40846;44.788;20.486;2022-12-18T09:50:23;50.28;;;23.95;;
54945;SDS011;40846;44.788;20.486;2022-12-18T09:52:59;59.58;;;25.20;;
54945;SDS011;40846;44.788;20.486;2022-12-18T09:55:34;191.40;;;34.42;;
54945;SDS011;40846;44.788;20.486;2022-12-18T10:00:36;47.80;;;23.48;;
54945;SDS011;40846;44.788;20.486;2022-12-18T10:03:08;49.00;;;24.90;;
54945;SDS011;40846;44.788;20.486;2022-12-18T10:05:37;47.22;;;24.25;;
54945;SDS011;40846;44.788;20.486;2022-12-18T10:08:15;52.45;;;26.50;;
54945;SDS011;40846;44.788;20.486;2022-12-18T10:16:12;54.45;;;26.75;;
54945;SDS011;40846;44.788;20.486;2022-12-18T10:19:42;55.70;;;27.33;;
54945;SDS011;40846;44.788;20.486;2022-12-18T10:21:57;55.25;;;27.55;;
54945;SDS011;40846;44.788;20.486;2022-12-18T10:24:42;54.17;;;26.50;;
54945;SDS011;40846;44.788;20.486;2022-12-18T10:27:27;58.25;;;26.48;;
54945;SDS011;40846;44.788;20.486;2022-12-18T10:29:54;56.90;;;27.13;;
54945;SDS011;40846;44.788;20.486;2022-12-18T10:32:25;55.83;;;26.15;;
54945;SDS011;40846;44.788;20.486;2022-12-18T10:34:54;57.00;;;27.17;;
54945;SDS011;40846;44.788;20.486;2022-12-18T10:37:23;58.83;;;27.38;;
54945;SDS011;40846;44.788;20.486;2022-12-18T10:42:37;54.83;;;24.95;;
54945;SDS011;40846;44.788;20.486;2022-12-18T10:45:06;60.17;;;27.20;;
54945;SDS011;40846;44.788;20.486;2022-12-18T10:47:33;65.32;;;27.58;;
54945;SDS011;40846;44.788;20.486;2022-12-18T10:50:00;57.08;;;25.33;;
54945;SDS011;40846;44.788;20.486;2022-12-18T10:52:26;58.25;;;25.90;;
54945;SDS011;40846;44.788;20.486;2022-12-18T10:54:53;68.88;;;27.00;;
54945;SDS011;40846;44.788;20.486;2022-12-18T11:02:55;56.85;;;25.67;;
54945;SDS011;40846;44.788;20.486;2022-12-18T11:08:01;52.83;;;22.98;;
54945;SDS011;40846;44.788;20.486;2022-12-18T11:12:55;64.35;;;28.25;;
54945;SDS011;40846;44.788;20.486;2022-12-18T11:15:33;57.03;;;25.65;;
54945;SDS011;40846;44.788;20.486;2022-12-18T11:17:59;56.17;;;24.83;;
54945;SDS011;40846;44.788;20.486;2022-12-18T11:20:31;61.80;;;26.92;;
54945;SDS011;40846;44.788;20.486;2022-12-18T11:23:01;57.35;;;25.05;;
54945;SDS011;40846;44.788;20.486;2022-12-18T11:25:30;60.30;;;25.80;;
54945;SDS011;40846;44.788;20.486;2022-12-18T11:30:36;60.75;;;28.02;;
54945;SDS011;40846;44.788;20.486;2022-12-18T11:33:06;60.58;;;27.40;;
54945;SDS011;40846;44.788;20.486;2022-12-18T11:41:00;60.50;;;28.00;;
54945;SDS011;40846;44.788;20.486;2022-12-18T11:43:35;66.23;;;28.53;;
54945;SDS011;40846;44.788;20.486;2022-12-18T11:46:17;64.85;;;29.20;;
54945;SDS011;40846;44.788;20.486;2022-12-18T11:48:57;64.65;;;27.13;;
54945;SDS011;40846;44.788;20.486;2022-12-18T11:51:33;66.28;;;28.42;;
54945;SDS011;40846;44.788;20.486;2022-12-18T11:54:08;53.92;;;25.02;;
54945;SDS011;40846;44.788;20.486;2022-12-18T11:57:04;62.15;;;28.23;;
54945;SDS011;40846;44.788;20.486;2022-12-18T11:59:36;63.90;;;29.20;;
54945;SDS011;40846;44.788;20.486;2022-12-18T12:07:26;62.85;;;31.35;;
54945;SDS011;40846;44.788;20.486;2022-12-18T12:18:04;62.37;;;30.03;;
54945;SDS011;40846;44.788;20.486;2022-12-18T12:23:35;70.10;;;31.75;;
54945;SDS011;40846;44.788;20.486;2022-12-18T12:26:12;73.82;;;31.63;;
54945;SDS011;40846;44.788;20.486;2022-12-18T12:31:10;70.07;;;30.02;;
54945;SDS011;40846;44.788;20.486;2022-12-18T12:33:53;66.32;;;29.77;;
54945;SDS011;40846;44.788;20.486;2022-12-18T12:39:18;85.38;;;36.05;;
54945;SDS011;40846;44.788;20.486;2022-12-18T12:41:48;127.03;;;47.20;;
54945;SDS011;40846;44.788;20.486;2022-12-18T12:44:34;70.88;;;31.95;;
54945;SDS011;40846;44.788;20.486;2022-12-18T12:47:16;97.13;;;40.63;;
54945;SDS011;40846;44.788;20.486;2022-12-18T12:49:55;82.65;;;37.00;;
54945;SDS011;40846;44.788;20.486;2022-12-18T12:52:28;84.75;;;35.80;;
54945;SDS011;40846;44.788;20.486;2022-12-18T12:54:58;83.43;;;37.28;;
54945;SDS011;40846;44.788;20.486;2022-12-18T12:57:33;67.32;;;32.15;;
54945;SDS011;40846;44.788;20.486;2022-12-18T13:00:09;78.38;;;33.53;;
54945;SDS011;40846;44.788;20.486;2022-12-18T13:02:46;74.28;;;32.80;;
54945;SDS011;40846;44.788;20.486;2022-12-18T13:05:30;88.70;;;38.25;;
54945;SDS011;40846;44.788;20.486;2022-12-18T13:08:03;75.75;;;32.60;;
54945;SDS011;40846;44.788;20.486;2022-12-18T13:15:45;70.45;;;31.42;;
54945;SDS011;40846;44.788;20.486;2022-12-18T13:18:14;78.63;;;33.28;;
54945;SDS011;40846;44.788;20.486;2022-12-18T13:31:58;74.57;;;33.67;;
54945;SDS011;40846;44.788;20.486;2022-12-18T13:36:42;101.43;;;41.80;;
54945;SDS011;40846;44.788;20.486;2022-12-18T13:39:10;76.00;;;34.03;;
54945;SDS011;40846;44.788;20.486;2022-12-18T13:41:36;90.05;;;36.45;;
54945;SDS011;40846;44.788;20.486;2022-12-18T13:46:52;91.63;;;41.08;;
54945;SDS011;40846;44.788;20.486;2022-12-18T13:52:25;82.00;;;35.28;;
54945;SDS011;40846;44.788;20.486;2022-12-18T13:54:55;94.53;;;38.47;;
54945;SDS011;40846;44.788;20.486;2022-12-18T13:57:29;78.43;;;34.33;;
54945;SDS011;40846;44.788;20.486;2022-12-18T14:00:14;81.90;;;36.47;;
54945;SDS011;40846;44.788;20.486;2022-12-18T14:02:44;75.22;;;33.42;;
54945;SDS011;40846;44.788;20.486;2022-12-18T14:05:21;75.63;;;31.40;;
54945;SDS011;40846;44.788;20.486;2022-12-18T14:07:50;78.28;;;36.15;;
54945;SDS011;40846;44.788;20.486;2022-12-18T14:10:16;66.63;;;28.85;;
54945;SDS011;40846;44.788;20.486;2022-12-18T14:12:49;65.20;;;26.60;;
54945;SDS011;40846;44.788;20.486;2022-12-18T14:21:01;80.07;;;36.65;;
54945;SDS011;40846;44.788;20.486;2022-12-18T14:26:20;86.40;;;35.03;;
54945;SDS011;40846;44.788;20.486;2022-12-18T14:28:58;71.60;;;32.17;;
54945;SDS011;40846;44.788;20.486;2022-12-18T14:31:27;61.63;;;27.05;;
54945;SDS011;40846;44.788;20.486;2022-12-18T14:33:55;58.72;;;25.50;;
54945;SDS011;40846;44.788;20.486;2022-12-18T14:36:24;62.38;;;26.70;;
54945;SDS011;40846;44.788;20.486;2022-12-18T14:38:53;60.55;;;27.13;;
54945;SDS011;40846;44.788;20.486;2022-12-18T14:41:20;61.67;;;26.52;;
54945;SDS011;40846;44.788;20.486;2022-12-18T14:43:48;59.67;;;25.20;;
54945;SDS011;40846;44.788;20.486;2022-12-18T14:49:04;75.47;;;32.92;;
54945;SDS011;40846;44.788;20.486;2022-12-18T14:51:54;108.15;;;43.33;;
54945;SDS011;40846;44.788;20.486;2022-12-18T14:54:21;73.47;;;29.73;;
54945;SDS011;40846;44.788;20.486;2022-12-18T14:56:49;65.50;;;27.92;;
54945;SDS011;40846;44.788;20.486;2022-12-18T14:59:25;67.07;;;27.15;;
54945;SDS011;40846;44.788;20.486;2022-12-18T15:04:38;63.70;;;29.75;;
54945;SDS011;40846;44.788;20.486;2022-12-18T15:10:00;95.50;;;37.13;;
54945;SDS011;40846;44.788;20.486;2022-12-18T15:15:02;97.80;;;40.10;;
54945;SDS011;40846;44.788;20.486;2022-12-18T15:17:29;89.90;;;36.80;;
54945;SDS011;40846;44.788;20.486;2022-12-18T15:19:58;89.53;;;36.35;;
54945;SDS011;40846;44.788;20.486;2022-12-18T15:25:00;91.80;;;38.15;;
54945;SDS011;40846;44.788;20.486;2022-12-18T15:27:30;115.80;;;45.53;;
54945;SDS011;40846;44.788;20.486;2022-12-18T15:32:38;88.50;;;35.97;;
54945;SDS011;40846;44.788;20.486;2022-12-18T15:37:32;95.38;;;40.50;;
54945;SDS011;40846;44.788;20.486;2022-12-18T15:39:58;83.70;;;33.58;;
54945;SDS011;40846;44.788;20.486;2022-12-18T15:42:24;65.97;;;29.15;;
54945;SDS011;40846;44.788;20.486;2022-12-18T15:45:11;86.00;;;35.28;;
54945;SDS011;40846;44.788;20.486;2022-12-18T15:47:37;79.38;;;33.08;;
54945;SDS011;40846;44.788;20.486;2022-12-18T15:50:05;91.20;;;37.20;;
54945;SDS011;40846;44.788;20.486;2022-12-18T15:52:37;99.07;;;41.58;;
54945;SDS011;40846;44.788;20.486;2022-12-18T15:55:12;101.65;;;39.30;;
54945;SDS011;40846;44.788;20.486;2022-12-18T15:57:58;104.88;;;42.65;;
54945;SDS011;40846;44.788;20.486;2022-12-18T16:00:23;102.20;;;42.60;;
54945;SDS011;40846;44.788;20.486;2022-12-18T16:02:49;95.25;;;36.95;;
54945;SDS011;40846;44.788;20.486;2022-12-18T16:05:15;100.18;;;42.20;;
54945;SDS011;40846;44.788;20.486;2022-12-18T16:07:43;102.10;;;43.25;;
54945;SDS011;40846;44.788;20.486;2022-12-18T16:10:09;114.63;;;48.28;;
54945;SDS011;40846;44.788;20.486;2022-12-18T16:12:35;97.20;;;40.33;;
54945;SDS011;40846;44.788;20.486;2022-12-18T16:15:01;110.65;;;47.67;;
54945;SDS011;40846;44.788;20.486;2022-12-18T16:17:28;147.43;;;58.95;;
54945;SDS011;40846;44.788;20.486;2022-12-18T16:19:53;240.52;;;85.35;;
54945;SDS011;40846;44.788;20.486;2022-12-18T16:24:50;85.70;;;38.15;;
54945;SDS011;40846;44.788;20.486;2022-12-18T16:27:17;95.50;;;40.85;;
54945;SDS011;40846;44.788;20.486;2022-12-18T16:29:43;101.65;;;42.17;;
54945;SDS011;40846;44.788;20.486;2022-12-18T16:32:14;113.03;;;45.80;;
54945;SDS011;40846;44.788;20.486;2022-12-18T16:34:41;142.23;;;64.28;;
54945;SDS011;40846;44.788;20.486;2022-12-18T16:37:09;106.28;;;44.78;;
54945;SDS011;40846;44.788;20.486;2022-12-18T16:39:36;101.95;;;44.65;;
54945;SDS011;40846;44.788;20.486;2022-12-18T16:42:03;98.28;;;42.78;;
54945;SDS011;40846;44.788;20.486;2022-12-18T16:44:31;109.88;;;47.88;;